India Meteorological Department
Airport METARs
Date : 16-08-2018
Sl. # Airport METAR
1 Agartala VEAT 160100Z 00000KT 5000 BR FEW018 BKN100 28/26 Q1004 NOSIG=
2 Ahmedabad VAAH 160130Z 29006KT 3000 HZ SCT020 BKN080 28/24 Q1003 TEMPO 2000=
3 Amritsar VIAR 160130Z VRB02KT 3000 BR FEW040 SCT100 28/25 Q1004 NOSIG=
4 Aurangabad VAAU 160100Z 27006KT 3000 HZ SCT010 SCT020 OVC080 23/2 Q1004 NOSIG=
5 Bangalore VOBL 160130Z 26011KT 3000 -DZ SCT008 SCT012 BKN080 21/21 Q1010 NOSIG=
6 Baroda VABO 160130Z 34008KT 6000 SCT020 BKN080 27/23 Q1002 NOSIG=
7 Bhaunagar VABV 160130Z 28007KT 3000 HZ BKN020 OVC080 27/24 Q1003=
8 Bhopal VABP 160130Z 01008KT 1500 DZ SCT005 SCT020 BKN100 24/24 Q1003 NOSIG=
9 Bhubaneswar VEBS 160130Z 12003KT 5000 HZ SCT018 28/26 Q0998 NOSIG=
10 Bhuntar VIBR 160130Z 00000KT 5000 -DZ FEW005 BKN030 OVC080 22/21 Q1011=
11 Chennai VOMM 160130Z 23008KT 6000 FEW020 SCT100 27/24 Q1003 NOSIG=
12 Coimbatore VOCB 160130Z 20010KT 4000 -DZ SCT012 BKN080 22/21 Q1009 NOSIG=
13 Colombo VCBI 160140Z 27006KT 210V330 9999 FEW012 BKN016 24/23 Q1009 NOSIG=
14 Delhi VIDP 160100Z 00000KT 2500 BR SCT035 BKN100 28/26 Q1004 NOSIG=
15 Dehradun VIDN 160130Z 00000KT 3000 BR SCT020 BKN060 24/24 Q1006=
16 Gauhati VEGT 160130Z 25006KT 5000 BR SCT018 FEW025CB BKN100 29/27 Q1005 NOSIG=
17 Gaya VEGY 160130Z NIL=
18 Gaggal VIGG 160100Z 33002KT 5000 BR SCT030 BKN080 24/24 Q1011=
19 Goa VOGO 160030Z 28015G27KT 3000 RA FEW008 SCT010 OVC080 25/24 Q1005 TEMPO 2500 RA/DZ=
20 Hyderabad VOHS 160130Z 28013KT 5000 -DZ SCT010 SCT020 OVC080 22/22 Q1003 NOSIG=
21 Imphal VEIM 160100Z 13003KT 3000 BR SCT018 BKN100 23/22 Q1009 NOSIG=
22 Indore VAID 160200Z 36007KT 2000 -DZ SCT010 SCT020 BKN100 23/23 Q1004 NOSIG=
23 Jaipur VIJP 160130Z 08005KT 2000 BR SCT030 BKN100 27/25 Q1004 NOSIG=
24 Kochi VOCI 160130Z NIL=
25 Kolkata VECC 160130Z 09008KT 3200 HZ SCT018 SCT100 29/27 Q1001 NOSIG=
26 Kozhikode VOCL 160130Z 25008KT 3000 -RA FEW004 SCT012 FEW025CB OVC080 23/20 Q1008 TEMPO 1500 RA=
27 Lucknow VILK 160130Z 08006KT 2500 BR FEW018 BKN100 29/27 Q1002 NOSIG=
28 Madurai VOMD 160130Z 29015G25KT 6000 SCT016 OVC090 26/22 Q1007 NOSIG=
29 Mohanbari VEMN 160130Z 00000KT 4000 HZ FEW020 SCT100 29/27 Q1004 BECMG 5000 HZ=
30 Mumbai VABB 160130Z 28008G18KT 2100 -DZ FEW012 SCT018 OVC090 27/26 Q1003 NOSIG=
31 Nagpur VANP 160130Z 32003KT 4000 HZ SCT010 SCT015 FEW030CB BKN090 26/25 Q0998 NOSIG=
32 Patna VEPT 160130Z 09010KT 4500 HZ SCT015 SCT025 29/27 Q1000 BECMG 5000 HZ=
33 Raipur VERP 160100Z 06013KT 3000 -RA BKN020 OVC080 26/25 Q0997 NOSIG=
34 Shimla VISM 160130Z 14002KT 2500 BR SCT010 BKN030 21/20 Q1015=
35 Surat VASU 160130Z 30004KT 4000 BR FEW012 SCT020 OVC080 27/25 Q1002=
36 Ranchi VERC 160130Z 14006KT 1500 -RA SCT010 SCT015 OVC080 24/24 Q1004 NOSIG=
37 Trichy VOTR 160130Z 28010G20KT 6000 SCT018 SCT100 28/21 Q1005 NOSIG=
38 Trivandrum VOTV 160130Z 03003KT 3000 HZ SCT008 SCT012 FEW025CB OVC080 23/21 Q1009 TEMPO 2000 RA=
39 Udaipur VAUD 160100Z 00000KT 3000 HZ SCT025 BKN080 26/24 Q1004 NOSIG =
40 Varanasi VEBN 160130Z 07008KT 5000 HZ FEW015 SCT100 28/26 Q0999 NOSIG=
41 Vizag VOVZ 160130Z 25004KT 3500 DZ FEW008 SCT012 OVC070 26/25 Q0998 TEMPO 3000 -RA/DZ=
42 Male VRMM 160100Z 23010KT 9999 FEW017 SCT018CB BKN260 29/25 Q1010 CB N,NE,E,NW TEMPO FEW018CB=
43 Gan VRMG 160100Z 20006KT 9999 FEW018TCU BKN120 28/25 Q1010 TEMPO FEW018CB=
44 Kathmandu VNKT 160150Z 19003KT 7000 FEW008 SCT030 23/22 Q1013 NOSIG=
45 Dhaka VGHS 160130Z 10006KT 3500 HZ SCT012 BKN100 29/25 Q1004 NOSIG=
46 Colombo VCBI 160140Z 27006KT 210V330 9999 FEW012 BKN016 24/23 Q1009 NOSIG=
47 Karachi OPKC 160125Z 24006KT 4000 FU SCT020 BKN030 28/23 Q1001 NOSIG=
48 Lahore OPLA 160125Z 12003KT 4000 FU FEW040 SCT100 27/25 Q1004 RMK A29.63 RMK QFE978=
49 Leh VILH 160030Z VRB02KT 6000 FEW070 SCT100 17/06 Q1026 NOSIG . RMK AC=
50 Sri Nagar VISR 160130Z VRB01KT 3000 BR SCT025 SCT090 19/18 Q1016 TEMPO2000M NOSIG=
51 Jammu VIJU 160030Z 04003KT 5000 BR SCT020 BKN100 28/27 Q1004 NOSIG=
52 Gwalior VIGR 160000Z 00000KT 3000 HZ SCT025 BKN080 26/25 Q1001=
53 Pune VAPO 160130Z 28010KT 4000 -RA SCT010 SCT020 BKN080 22/22 Q1006 TEMPO 3000 RA=
54 Chandigarh VICG 160130Z 08004KT 4000 BR SCT090 SCT200 28/24 Q1005 NOSIG=

 

--- End of List ---